Vitsentzos Kornaros — SXNX — position and weather

sailwx.info

Track history (hours):
 
Tides and Currents Weather Stations Pressure Air Temp Water Temp Dewpoint Dewpoint Depression Visibility Wind Speed Wind Dir Waves Ship Positions

Vitsentzos Kornaros

Last reported at 2016-Apr-29 12:09 UTC. Time now 2016-May-02 10:48 UTC.
Position N 35°31' E 023°38'.

Length 128 m; draft 4.5 m.

Type: Passenger vessel. MMSI: 239311000.

Date/timePositionNaut miles runAvg speedWind from/ knotsBaromVisibWave heightAir tempDewpointWater temp
2016-Apr-29 12:09N 35°31' E 023°38'0 0.0
2016-Apr-29 11:33N 35°31' E 023°38'0 0.0
2016-Apr-29 10:33N 35°31' E 023°38'0 0.0
2016-Apr-29 09:32N 35°31' E 023°38'0 0.0
2016-Apr-29 08:33N 35°31' E 023°38'0 0.0
2016-Apr-29 07:33N 35°31' E 023°38'0 0.0
2016-Apr-29 06:33N 35°31' E 023°38'10 9.7
2016-Apr-29 05:33N 35°40' E 023°35'1414.4
2016-Apr-29 04:33N 35°51' E 023°23'7 7.5
2016-Apr-29 03:33N 35°56' E 023°17'1515.0
2016-Apr-29 02:33N 36°11' E 023°11'14 6.8
2016-Apr-29 00:33N 36°24' E 023°12'1514.7
2016-Apr-28 23:33N 36°38' E 023°19'1615.1
2016-Apr-28 22:29N 36°54' E 023°24'1414.9
2016-Apr-28 21:34N 37°06' E 023°30'1515.0
2016-Apr-28 20:33N 37°21' E 023°36'1514.9
2016-Apr-28 19:33N 37°35' E 023°40'1414.0
2016-Apr-28 18:34N 37°49' E 023°37'8 7.6
2016-Apr-28 17:33N 37°56' E 023°37'0 0.0
2016-Apr-28 16:33N 37°56' E 023°37'0 0.1
2016-Apr-28 15:33N 37°56' E 023°38'2 1.5
2016-Apr-28 14:33N 37°57' E 023°36'0 0.4
2016-Apr-28 13:33N 37°57' E 023°36'0 0.0
2016-Apr-28 12:33N 37°57' E 023°36'0 0.0
2016-Apr-28 11:33N 37°57' E 023°36'0 0.0
2016-Apr-28 10:33N 37°57' E 023°36'0 0.0
2016-Apr-28 09:33N 37°57' E 023°36'0 0.0
2016-Apr-28 08:33N 37°57' E 023°36'0 0.0
2016-Apr-28 07:33N 37°57' E 023°36'0 0.0
2016-Apr-28 06:33N 37°57' E 023°36'0 0.0
2016-Apr-28 05:33N 37°57' E 023°36'0 0.0
2016-Apr-28 04:33N 37°57' E 023°36'0 0.0
2016-Apr-28 03:33N 37°57' E 023°36'0 0.0
2016-Apr-28 02:33N 37°57' E 023°36'0 0.0
2016-Apr-28 01:33N 37°57' E 023°36'0 0.0
2016-Apr-28 00:33N 37°57' E 023°36'0 0.0
2016-Apr-27 23:33N 37°57' E 023°36'0 0.0
2016-Apr-27 22:33N 37°57' E 023°36'0 0.0
2016-Apr-27 21:33N 37°57' E 023°36'0 0.0
2016-Apr-27 20:33N 37°57' E 023°36'0 0.0
2016-Apr-27 19:33N 37°57' E 023°36'0 0.0
2016-Apr-27 18:33N 37°57' E 023°36'0 0.0
2016-Apr-27 17:33N 37°57' E 023°36'0 0.0
2016-Apr-26 13:31N 37°57' E 023°36'0 0.0
2016-Apr-26 12:33N 37°57' E 023°36'0 0.0
2016-Apr-26 11:33N 37°57' E 023°36'0 0.0
2016-Apr-26 10:33N 37°57' E 023°36'0 0.0
2016-Apr-26 09:33N 37°57' E 023°36'0 0.0
2016-Apr-26 08:33N 37°57' E 023°36'0 0.0
2016-Apr-26 07:33N 37°57' E 023°36'0 0.0
2016-Apr-26 06:33N 37°57' E 023°36'0 0.0
2016-Apr-26 05:33N 37°57' E 023°36'0 0.0
2016-Apr-26 04:33N 37°57' E 023°36'0 0.0
2016-Apr-26 03:33N 37°57' E 023°36'0 0.0
2016-Apr-26 02:33N 37°57' E 023°36'0 0.0
2016-Apr-26 01:33N 37°57' E 023°36'  
2016-Apr-23 07:33N 37°57' E 023°36'1 1.0
2016-Apr-23 06:33N 37°56' E 023°37'1 0.8
2016-Apr-23 05:33N 37°57' E 023°38'0 0.0
2016-Apr-23 04:33N 37°57' E 023°38'  
Track history (hours):
 
Tides and Currents Weather Stations Pressure Air Temp Water Temp Dewpoint Dewpoint Depression Visibility Wind Speed Wind Dir Waves Ship Positions

Vitsentzos Kornaros

Last reported at 2016-Apr-29 12:09 UTC. Time now 2016-May-02 10:48 UTC.
Position N 35°31' E 023°38'.

Length 128 m; draft 4.5 m.

Type: Passenger vessel. MMSI: 239311000.

Date/timePositionNaut miles runAvg speedWind from/ knotsBaromVisibWave heightAir tempDewpointWater temp
2016-Apr-29 12:09N 35°31' E 023°38'0 0.0
2016-Apr-29 11:33N 35°31' E 023°38'0 0.0
2016-Apr-29 10:33N 35°31' E 023°38'0 0.0
2016-Apr-29 09:32N 35°31' E 023°38'0 0.0
2016-Apr-29 08:33N 35°31' E 023°38'0 0.0
2016-Apr-29 07:33N 35°31' E 023°38'0 0.0
2016-Apr-29 06:33N 35°31' E 023°38'10 9.7
2016-Apr-29 05:33N 35°40' E 023°35'1414.4
2016-Apr-29 04:33N 35°51' E 023°23'7 7.5
2016-Apr-29 03:33N 35°56' E 023°17'1515.0
2016-Apr-29 02:33N 36°11' E 023°11'14 6.8
2016-Apr-29 00:33N 36°24' E 023°12'1514.7
2016-Apr-28 23:33N 36°38' E 023°19'1615.1
2016-Apr-28 22:29N 36°54' E 023°24'1414.9
2016-Apr-28 21:34N 37°06' E 023°30'1515.0
2016-Apr-28 20:33N 37°21' E 023°36'1514.9
2016-Apr-28 19:33N 37°35' E 023°40'1414.0
2016-Apr-28 18:34N 37°49' E 023°37'8 7.6
2016-Apr-28 17:33N 37°56' E 023°37'0 0.0
2016-Apr-28 16:33N 37°56' E 023°37'0 0.1
2016-Apr-28 15:33N 37°56' E 023°38'2 1.5
2016-Apr-28 14:33N 37°57' E 023°36'0 0.4
2016-Apr-28 13:33N 37°57' E 023°36'0 0.0
2016-Apr-28 12:33N 37°57' E 023°36'0 0.0
2016-Apr-28 11:33N 37°57' E 023°36'0 0.0
2016-Apr-28 10:33N 37°57' E 023°36'0 0.0
2016-Apr-28 09:33N 37°57' E 023°36'0 0.0
2016-Apr-28 08:33N 37°57' E 023°36'0 0.0
2016-Apr-28 07:33N 37°57' E 023°36'0 0.0
2016-Apr-28 06:33N 37°57' E 023°36'0 0.0
2016-Apr-28 05:33N 37°57' E 023°36'0 0.0
2016-Apr-28 04:33N 37°57' E 023°36'0 0.0
2016-Apr-28 03:33N 37°57' E 023°36'0 0.0
2016-Apr-28 02:33N 37°57' E 023°36'0 0.0
2016-Apr-28 01:33N 37°57' E 023°36'0 0.0
2016-Apr-28 00:33N 37°57' E 023°36'0 0.0
2016-Apr-27 23:33N 37°57' E 023°36'0 0.0
2016-Apr-27 22:33N 37°57' E 023°36'0 0.0
2016-Apr-27 21:33N 37°57' E 023°36'0 0.0
2016-Apr-27 20:33N 37°57' E 023°36'0 0.0
2016-Apr-27 19:33N 37°57' E 023°36'0 0.0
2016-Apr-27 18:33N 37°57' E 023°36'0 0.0
2016-Apr-27 17:33N 37°57' E 023°36'0 0.0
2016-Apr-26 13:31N 37°57' E 023°36'0 0.0
2016-Apr-26 12:33N 37°57' E 023°36'0 0.0
2016-Apr-26 11:33N 37°57' E 023°36'0 0.0
2016-Apr-26 10:33N 37°57' E 023°36'0 0.0
2016-Apr-26 09:33N 37°57' E 023°36'0 0.0
2016-Apr-26 08:33N 37°57' E 023°36'0 0.0
2016-Apr-26 07:33N 37°57' E 023°36'0 0.0
2016-Apr-26 06:33N 37°57' E 023°36'0 0.0
2016-Apr-26 05:33N 37°57' E 023°36'0 0.0
2016-Apr-26 04:33N 37°57' E 023°36'0 0.0
2016-Apr-26 03:33N 37°57' E 023°36'0 0.0
2016-Apr-26 02:33N 37°57' E 023°36'0 0.0
2016-Apr-26 01:33N 37°57' E 023°36'  
2016-Apr-23 07:33N 37°57' E 023°36'1 1.0
2016-Apr-23 06:33N 37°56' E 023°37'1 0.8
2016-Apr-23 05:33N 37°57' E 023°38'0 0.0
2016-Apr-23 04:33N 37°57' E 023°38'  

Dump ship's entire track history